Schedule Details


Flight Number: CTN4466
Departure: Cilipi (LDDU) at 07:05
Arrival: Zurich (LSZH) at 09:20
Route: AMUGO L611 UVODI L862 SABAD DCT GIMIX DCT ERKIR L608 KPT L856 NEGRA

Weather Information
LDDU 191230Z 16010KT 9999 BKN040 12/08 Q1017 NOSIG
LSZH 191220Z 27015KT 230V310 9999 VCSH FEW028 SCT040 07/00 Q1024 NOSIG
Schedule Frequency

Route Map